sensor_id;sensor_type;location;lat;lon;timestamp;temperature;humidity
15359;DHT22;7779;49.596;11.070;2023-12-20T00:01:35;7.60;77.00
15359;DHT22;7779;49.596;11.070;2023-12-20T00:04:02;7.60;76.90
15359;DHT22;7779;49.596;11.070;2023-12-20T00:06:29;7.60;77.00
15359;DHT22;7779;49.596;11.070;2023-12-20T00:08:55;7.60;77.00
15359;DHT22;7779;49.596;11.070;2023-12-20T00:11:21;7.60;77.10
15359;DHT22;7779;49.596;11.070;2023-12-20T00:13:46;7.60;77.10
15359;DHT22;7779;49.596;11.070;2023-12-20T00:16:12;7.60;77.20
15359;DHT22;7779;49.596;11.070;2023-12-20T00:18:38;7.60;77.20
15359;DHT22;7779;49.596;11.070;2023-12-20T00:21:03;7.60;77.20
15359;DHT22;7779;49.596;11.070;2023-12-20T00:23:29;7.50;77.20
15359;DHT22;7779;49.596;11.070;2023-12-20T00:25:55;7.50;77.20
15359;DHT22;7779;49.596;11.070;2023-12-20T00:28:21;7.50;77.30
15359;DHT22;7779;49.596;11.070;2023-12-20T00:30:48;7.50;77.40
15359;DHT22;7779;49.596;11.070;2023-12-20T00:33:13;7.50;77.40
15359;DHT22;7779;49.596;11.070;2023-12-20T00:35:39;7.50;77.50
15359;DHT22;7779;49.596;11.070;2023-12-20T00:38:05;7.50;77.50
15359;DHT22;7779;49.596;11.070;2023-12-20T00:40:32;7.50;77.60
15359;DHT22;7779;49.596;11.070;2023-12-20T00:42:58;7.50;77.60
15359;DHT22;7779;49.596;11.070;2023-12-20T00:45:24;7.50;77.70
15359;DHT22;7779;49.596;11.070;2023-12-20T00:47:50;7.50;77.70
15359;DHT22;7779;49.596;11.070;2023-12-20T00:50:16;7.50;77.80
15359;DHT22;7779;49.596;11.070;2023-12-20T00:52:41;7.50;77.80
15359;DHT22;7779;49.596;11.070;2023-12-20T00:55:07;7.50;77.80
15359;DHT22;7779;49.596;11.070;2023-12-20T00:57:33;7.50;77.70
15359;DHT22;7779;49.596;11.070;2023-12-20T00:59:59;7.50;77.90
15359;DHT22;7779;49.596;11.070;2023-12-20T01:02:25;7.50;78.00
15359;DHT22;7779;49.596;11.070;2023-12-20T01:04:50;7.50;78.00
15359;DHT22;7779;49.596;11.070;2023-12-20T01:07:16;7.50;78.10
15359;DHT22;7779;49.596;11.070;2023-12-20T01:09:42;7.50;78.10
15359;DHT22;7779;49.596;11.070;2023-12-20T01:12:08;7.50;78.20
15359;DHT22;7779;49.596;11.070;2023-12-20T01:14:33;7.50;78.10
15359;DHT22;7779;49.596;11.070;2023-12-20T01:16:59;7.50;78.10
15359;DHT22;7779;49.596;11.070;2023-12-20T01:19:25;7.50;78.10
15359;DHT22;7779;49.596;11.070;2023-12-20T01:21:52;7.40;78.10
15359;DHT22;7779;49.596;11.070;2023-12-20T01:24:18;7.40;78.10
15359;DHT22;7779;49.596;11.070;2023-12-20T01:26:43;7.40;78.10
15359;DHT22;7779;49.596;11.070;2023-12-20T01:29:10;7.40;78.10
15359;DHT22;7779;49.596;11.070;2023-12-20T01:31:35;7.40;78.10
15359;DHT22;7779;49.596;11.070;2023-12-20T01:34:01;7.40;78.10
15359;DHT22;7779;49.596;11.070;2023-12-20T01:36:27;7.40;78.20
15359;DHT22;7779;49.596;11.070;2023-12-20T01:38:52;7.40;78.20
15359;DHT22;7779;49.596;11.070;2023-12-20T01:41:18;7.40;78.20
15359;DHT22;7779;49.596;11.070;2023-12-20T01:43:44;7.40;78.20
15359;DHT22;7779;49.596;11.070;2023-12-20T01:46:10;7.40;78.30
15359;DHT22;7779;49.596;11.070;2023-12-20T01:48:37;7.40;78.30
15359;DHT22;7779;49.596;11.070;2023-12-20T01:51:04;7.30;78.60
15359;DHT22;7779;49.596;11.070;2023-12-20T01:53:30;7.30;78.20
15359;DHT22;7779;49.596;11.070;2023-12-20T01:55:58;7.30;78.20
15359;DHT22;7779;49.596;11.070;2023-12-20T01:58:25;7.30;78.20
15359;DHT22;7779;49.596;11.070;2023-12-20T02:00:51;7.30;78.20
15359;DHT22;7779;49.596;11.070;2023-12-20T02:03:17;7.30;78.20
15359;DHT22;7779;49.596;11.070;2023-12-20T02:05:44;7.30;78.10
15359;DHT22;7779;49.596;11.070;2023-12-20T02:08:12;7.20;78.10
15359;DHT22;7779;49.596;11.070;2023-12-20T02:10:37;7.20;78.10
15359;DHT22;7779;49.596;11.070;2023-12-20T02:13:03;7.20;78.10
15359;DHT22;7779;49.596;11.070;2023-12-20T02:15:30;7.20;78.10
15359;DHT22;7779;49.596;11.070;2023-12-20T02:17:55;7.20;78.10
15359;DHT22;7779;49.596;11.070;2023-12-20T02:20:21;7.20;78.20
15359;DHT22;7779;49.596;11.070;2023-12-20T02:22:47;7.20;78.20
15359;DHT22;7779;49.596;11.070;2023-12-20T02:25:13;7.20;78.20
15359;DHT22;7779;49.596;11.070;2023-12-20T02:27:39;7.20;78.20
15359;DHT22;7779;49.596;11.070;2023-12-20T02:30:07;7.10;78.10
15359;DHT22;7779;49.596;11.070;2023-12-20T02:32:34;7.10;78.10
15359;DHT22;7779;49.596;11.070;2023-12-20T02:34:59;7.10;77.60
15359;DHT22;7779;49.596;11.070;2023-12-20T02:37:25;7.10;77.50
15359;DHT22;7779;49.596;11.070;2023-12-20T02:39:51;7.10;78.10
15359;DHT22;7779;49.596;11.070;2023-12-20T02:42:16;7.10;78.10
15359;DHT22;7779;49.596;11.070;2023-12-20T02:44:42;7.00;78.10
15359;DHT22;7779;49.596;11.070;2023-12-20T02:47:08;7.00;78.10
15359;DHT22;7779;49.596;11.070;2023-12-20T02:49:33;7.00;78.10
15359;DHT22;7779;49.596;11.070;2023-12-20T02:51:59;7.00;78.10
15359;DHT22;7779;49.596;11.070;2023-12-20T02:54:25;7.00;78.20
15359;DHT22;7779;49.596;11.070;2023-12-20T02:56:50;6.90;78.10
15359;DHT22;7779;49.596;11.070;2023-12-20T02:59:16;6.90;78.10
15359;DHT22;7779;49.596;11.070;2023-12-20T03:01:43;6.90;78.10
15359;DHT22;7779;49.596;11.070;2023-12-20T03:04:11;6.90;78.20
15359;DHT22;7779;49.596;11.070;2023-12-20T03:06:37;6.90;78.80
15359;DHT22;7779;49.596;11.070;2023-12-20T03:09:02;6.90;78.20
15359;DHT22;7779;49.596;11.070;2023-12-20T03:11:28;6.80;78.10
15359;DHT22;7779;49.596;11.070;2023-12-20T03:13:55;6.80;78.20
15359;DHT22;7779;49.596;11.070;2023-12-20T03:16:21;6.80;78.20
15359;DHT22;7779;49.596;11.070;2023-12-20T03:18:46;6.80;78.00
15359;DHT22;7779;49.596;11.070;2023-12-20T03:21:12;6.80;78.00
15359;DHT22;7779;49.596;11.070;2023-12-20T03:23:38;6.70;78.00
15359;DHT22;7779;49.596;11.070;2023-12-20T03:26:07;6.70;78.10
15359;DHT22;7779;49.596;11.070;2023-12-20T03:28:33;6.70;78.20
15359;DHT22;7779;49.596;11.070;2023-12-20T03:30:59;6.70;78.20
15359;DHT22;7779;49.596;11.070;2023-12-20T03:33:24;6.70;78.20
15359;DHT22;7779;49.596;11.070;2023-12-20T03:35:50;6.60;78.20
15359;DHT22;7779;49.596;11.070;2023-12-20T03:38:16;6.60;78.20
15359;DHT22;7779;49.596;11.070;2023-12-20T03:40:42;6.60;78.20
15359;DHT22;7779;49.596;11.070;2023-12-20T03:43:07;6.60;78.30
15359;DHT22;7779;49.596;11.070;2023-12-20T03:45:33;6.60;78.30
15359;DHT22;7779;49.596;11.070;2023-12-20T03:47:59;6.60;78.30
15359;DHT22;7779;49.596;11.070;2023-12-20T03:50:26;6.60;78.40
15359;DHT22;7779;49.596;11.070;2023-12-20T03:52:52;6.60;78.40
15359;DHT22;7779;49.596;11.070;2023-12-20T03:55:18;6.60;78.50
15359;DHT22;7779;49.596;11.070;2023-12-20T03:57:44;6.50;78.40
15359;DHT22;7779;49.596;11.070;2023-12-20T04:00:11;6.50;78.40
15359;DHT22;7779;49.596;11.070;2023-12-20T04:02:40;6.50;78.40
15359;DHT22;7779;49.596;11.070;2023-12-20T04:05:08;6.50;78.40
15359;DHT22;7779;49.596;11.070;2023-12-20T04:07:35;6.50;78.50
15359;DHT22;7779;49.596;11.070;2023-12-20T04:10:01;6.50;78.50
15359;DHT22;7779;49.596;11.070;2023-12-20T04:12:29;6.50;78.60
15359;DHT22;7779;49.596;11.070;2023-12-20T04:14:55;6.50;78.70
15359;DHT22;7779;49.596;11.070;2023-12-20T04:17:22;6.50;78.70
15359;DHT22;7779;49.596;11.070;2023-12-20T04:19:51;6.50;78.70
15359;DHT22;7779;49.596;11.070;2023-12-20T04:22:18;6.50;78.70
15359;DHT22;7779;49.596;11.070;2023-12-20T04:24:44;6.50;78.70
15359;DHT22;7779;49.596;11.070;2023-12-20T04:27:10;6.50;78.70
15359;DHT22;7779;49.596;11.070;2023-12-20T04:29:36;6.50;78.70
15359;DHT22;7779;49.596;11.070;2023-12-20T04:32:02;6.50;78.80
15359;DHT22;7779;49.596;11.070;2023-12-20T04:34:28;6.40;78.20
15359;DHT22;7779;49.596;11.070;2023-12-20T04:36:54;6.50;78.80
15359;DHT22;7779;49.596;11.070;2023-12-20T04:39:19;6.50;78.90
15359;DHT22;7779;49.596;11.070;2023-12-20T04:41:45;6.40;78.80
15359;DHT22;7779;49.596;11.070;2023-12-20T04:44:13;6.50;78.90
15359;DHT22;7779;49.596;11.070;2023-12-20T04:46:39;6.40;78.80
15359;DHT22;7779;49.596;11.070;2023-12-20T04:49:05;6.50;78.90
15359;DHT22;7779;49.596;11.070;2023-12-20T04:51:33;6.40;78.80
15359;DHT22;7779;49.596;11.070;2023-12-20T04:54:00;6.40;78.90
15359;DHT22;7779;49.596;11.070;2023-12-20T04:56:25;6.40;78.90
15359;DHT22;7779;49.596;11.070;2023-12-20T04:58:51;6.40;78.90
15359;DHT22;7779;49.596;11.070;2023-12-20T05:01:17;6.40;78.90
15359;DHT22;7779;49.596;11.070;2023-12-20T05:03:43;6.40;78.90
15359;DHT22;7779;49.596;11.070;2023-12-20T05:06:10;6.40;78.90
15359;DHT22;7779;49.596;11.070;2023-12-20T05:08:36;6.40;78.90
15359;DHT22;7779;49.596;11.070;2023-12-20T05:11:02;6.40;78.90
15359;DHT22;7779;49.596;11.070;2023-12-20T05:13:28;6.40;79.00
15359;DHT22;7779;49.596;11.070;2023-12-20T05:15:54;6.40;79.00
15359;DHT22;7779;49.596;11.070;2023-12-20T05:18:20;6.40;79.00
15359;DHT22;7779;49.596;11.070;2023-12-20T05:20:46;6.40;79.00
15359;DHT22;7779;49.596;11.070;2023-12-20T05:23:12;6.40;79.00
15359;DHT22;7779;49.596;11.070;2023-12-20T05:25:38;6.40;79.00
15359;DHT22;7779;49.596;11.070;2023-12-20T05:28:04;6.40;79.10
15359;DHT22;7779;49.596;11.070;2023-12-20T05:30:31;6.40;79.10
15359;DHT22;7779;49.596;11.070;2023-12-20T05:32:56;6.40;79.10
15359;DHT22;7779;49.596;11.070;2023-12-20T05:35:22;6.40;79.10
15359;DHT22;7779;49.596;11.070;2023-12-20T05:37:49;6.40;79.10
15359;DHT22;7779;49.596;11.070;2023-12-20T05:40:15;6.40;79.10
15359;DHT22;7779;49.596;11.070;2023-12-20T05:42:41;6.40;79.10
15359;DHT22;7779;49.596;11.070;2023-12-20T05:45:07;6.40;79.20
15359;DHT22;7779;49.596;11.070;2023-12-20T05:47:32;6.40;79.20
15359;DHT22;7779;49.596;11.070;2023-12-20T05:49:58;6.40;79.20
15359;DHT22;7779;49.596;11.070;2023-12-20T05:52:24;6.40;79.20
15359;DHT22;7779;49.596;11.070;2023-12-20T05:54:50;6.40;79.30
15359;DHT22;7779;49.596;11.070;2023-12-20T05:57:15;6.40;79.30
15359;DHT22;7779;49.596;11.070;2023-12-20T05:59:41;6.40;79.30
15359;DHT22;7779;49.596;11.070;2023-12-20T06:02:07;6.40;79.40
15359;DHT22;7779;49.596;11.070;2023-12-20T06:04:32;6.40;79.40
15359;DHT22;7779;49.596;11.070;2023-12-20T06:06:58;6.40;79.40
15359;DHT22;7779;49.596;11.070;2023-12-20T06:09:26;6.40;79.40
15359;DHT22;7779;49.596;11.070;2023-12-20T06:11:52;6.40;79.40
15359;DHT22;7779;49.596;11.070;2023-12-20T06:14:18;6.40;79.30
15359;DHT22;7779;49.596;11.070;2023-12-20T06:16:45;6.40;79.40
15359;DHT22;7779;49.596;11.070;2023-12-20T06:19:11;6.40;79.40
15359;DHT22;7779;49.596;11.070;2023-12-20T06:21:37;6.40;79.40
15359;DHT22;7779;49.596;11.070;2023-12-20T06:24:03;6.40;79.50
15359;DHT22;7779;49.596;11.070;2023-12-20T06:26:28;6.40;79.50
15359;DHT22;7779;49.596;11.070;2023-12-20T06:28:54;6.40;79.50
15359;DHT22;7779;49.596;11.070;2023-12-20T06:31:20;6.40;79.60
15359;DHT22;7779;49.596;11.070;2023-12-20T06:33:46;6.40;79.60
15359;DHT22;7779;49.596;11.070;2023-12-20T06:36:13;6.40;79.70
15359;DHT22;7779;49.596;11.070;2023-12-20T06:38:39;6.40;79.70
15359;DHT22;7779;49.596;11.070;2023-12-20T06:41:05;6.50;79.80
15359;DHT22;7779;49.596;11.070;2023-12-20T06:43:31;6.50;79.80
15359;DHT22;7779;49.596;11.070;2023-12-20T06:45:58;6.50;79.80
15359;DHT22;7779;49.596;11.070;2023-12-20T06:48:25;6.40;79.80
15359;DHT22;7779;49.596;11.070;2023-12-20T06:50:51;6.50;80.00
15359;DHT22;7779;49.596;11.070;2023-12-20T06:53:16;6.50;80.00
15359;DHT22;7779;49.596;11.070;2023-12-20T06:55:42;6.50;80.00
15359;DHT22;7779;49.596;11.070;2023-12-20T06:58:08;6.50;80.00
15359;DHT22;7779;49.596;11.070;2023-12-20T07:00:34;6.50;80.00
15359;DHT22;7779;49.596;11.070;2023-12-20T07:03:00;6.60;80.10
15359;DHT22;7779;49.596;11.070;2023-12-20T07:05:25;6.60;80.20
15359;DHT22;7779;49.596;11.070;2023-12-20T07:07:52;6.60;80.20
15359;DHT22;7779;49.596;11.070;2023-12-20T07:10:17;6.60;80.20
15359;DHT22;7779;49.596;11.070;2023-12-20T07:12:43;6.60;80.20
15359;DHT22;7779;49.596;11.070;2023-12-20T07:15:09;6.60;80.20
15359;DHT22;7779;49.596;11.070;2023-12-20T07:17:35;6.60;80.20
15359;DHT22;7779;49.596;11.070;2023-12-20T07:20:01;6.60;80.20
15359;DHT22;7779;49.596;11.070;2023-12-20T07:22:33;6.60;80.20
15359;DHT22;7779;49.596;11.070;2023-12-20T07:24:59;6.70;80.30
15359;DHT22;7779;49.596;11.070;2023-12-20T07:27:26;6.70;80.30
15359;DHT22;7779;49.596;11.070;2023-12-20T07:29:52;6.70;80.20
15359;DHT22;7779;49.596;11.070;2023-12-20T07:32:18;6.70;80.50
15359;DHT22;7779;49.596;11.070;2023-12-20T07:34:44;6.70;80.30
15359;DHT22;7779;49.596;11.070;2023-12-20T07:37:10;6.70;80.30
15359;DHT22;7779;49.596;11.070;2023-12-20T07:39:38;6.70;80.30
15359;DHT22;7779;49.596;11.070;2023-12-20T07:42:05;6.80;80.40
15359;DHT22;7779;49.596;11.070;2023-12-20T07:44:32;6.80;80.40
15359;DHT22;7779;49.596;11.070;2023-12-20T07:46:57;6.80;80.50
15359;DHT22;7779;49.596;11.070;2023-12-20T07:49:23;6.80;80.40
15359;DHT22;7779;49.596;11.070;2023-12-20T07:51:49;6.80;80.50
15359;DHT22;7779;49.596;11.070;2023-12-20T07:54:16;6.80;80.50
15359;DHT22;7779;49.596;11.070;2023-12-20T07:56:42;6.90;80.60
15359;DHT22;7779;49.596;11.070;2023-12-20T07:59:07;6.90;80.60
15359;DHT22;7779;49.596;11.070;2023-12-20T08:01:33;6.90;80.70
15359;DHT22;7779;49.596;11.070;2023-12-20T08:03:59;6.90;80.70
15359;DHT22;7779;49.596;11.070;2023-12-20T08:06:24;7.00;80.70
15359;DHT22;7779;49.596;11.070;2023-12-20T08:08:50;7.00;80.70
15359;DHT22;7779;49.596;11.070;2023-12-20T08:11:16;7.00;80.70
15359;DHT22;7779;49.596;11.070;2023-12-20T08:13:43;7.00;80.70
15359;DHT22;7779;49.596;11.070;2023-12-20T08:16:08;7.00;80.70
15359;DHT22;7779;49.596;11.070;2023-12-20T08:18:34;7.10;80.70
15359;DHT22;7779;49.596;11.070;2023-12-20T08:21:00;7.10;80.70
15359;DHT22;7779;49.596;11.070;2023-12-20T08:23:27;7.10;80.70
15359;DHT22;7779;49.596;11.070;2023-12-20T08:25:53;7.10;80.70
15359;DHT22;7779;49.596;11.070;2023-12-20T08:28:18;7.20;80.70
15359;DHT22;7779;49.596;11.070;2023-12-20T08:30:44;7.10;80.00
15359;DHT22;7779;49.596;11.070;2023-12-20T08:33:10;7.20;80.40
15359;DHT22;7779;49.596;11.070;2023-12-20T08:35:39;7.20;80.50
15359;DHT22;7779;49.596;11.070;2023-12-20T08:38:05;7.20;80.40
15359;DHT22;7779;49.596;11.070;2023-12-20T08:40:31;7.20;80.30
15359;DHT22;7779;49.596;11.070;2023-12-20T08:42:57;7.20;80.30
15359;DHT22;7779;49.596;11.070;2023-12-20T08:45:23;7.20;80.30
15359;DHT22;7779;49.596;11.070;2023-12-20T08:47:48;8.50;81.50
15359;DHT22;7779;49.596;11.070;2023-12-20T08:50:14;7.20;80.30
15359;DHT22;7779;49.596;11.070;2023-12-20T08:52:40;7.20;80.30
15359;DHT22;7779;49.596;11.070;2023-12-20T08:55:07;7.20;80.30
15359;DHT22;7779;49.596;11.070;2023-12-20T08:57:33;7.20;80.30
15359;DHT22;7779;49.596;11.070;2023-12-20T08:59:59;7.20;80.30
15359;DHT22;7779;49.596;11.070;2023-12-20T09:02:25;7.20;80.40
15359;DHT22;7779;49.596;11.070;2023-12-20T09:04:50;7.30;80.30
15359;DHT22;7779;49.596;11.070;2023-12-20T09:07:23;7.30;80.00
15359;DHT22;7779;49.596;11.070;2023-12-20T09:09:52;7.30;79.80
15359;DHT22;7779;49.596;11.070;2023-12-20T09:12:21;7.30;79.60
15359;DHT22;7779;49.596;11.070;2023-12-20T09:14:47;7.20;79.40
15359;DHT22;7779;49.596;11.070;2023-12-20T09:17:15;7.20;79.40
15359;DHT22;7779;49.596;11.070;2023-12-20T09:19:41;7.20;79.50
15359;DHT22;7779;49.596;11.070;2023-12-20T09:22:09;7.20;79.60
15359;DHT22;7779;49.596;11.070;2023-12-20T09:24:36;7.20;79.60
15359;DHT22;7779;49.596;11.070;2023-12-20T09:27:01;7.20;79.50
15359;DHT22;7779;49.596;11.070;2023-12-20T09:29:28;7.20;79.40
15359;DHT22;7779;49.596;11.070;2023-12-20T09:31:54;7.20;79.30
15359;DHT22;7779;49.596;11.070;2023-12-20T09:34:20;7.30;79.50
15359;DHT22;7779;49.596;11.070;2023-12-20T09:36:46;7.30;79.50
15359;DHT22;7779;49.596;11.070;2023-12-20T09:39:13;7.30;79.60
15359;DHT22;7779;49.596;11.070;2023-12-20T09:41:43;7.30;79.50
15359;DHT22;7779;49.596;11.070;2023-12-20T09:44:16;7.30;79.60
15359;DHT22;7779;49.596;11.070;2023-12-20T09:46:45;7.30;79.80
15359;DHT22;7779;49.596;11.070;2023-12-20T09:49:14;7.40;80.10
15359;DHT22;7779;49.596;11.070;2023-12-20T09:51:43;7.40;80.30
15359;DHT22;7779;49.596;11.070;2023-12-20T09:54:10;7.50;80.70
15359;DHT22;7779;49.596;11.070;2023-12-20T09:56:37;7.50;80.60
15359;DHT22;7779;49.596;11.070;2023-12-20T09:59:03;7.60;80.60
15359;DHT22;7779;49.596;11.070;2023-12-20T10:01:30;7.70;80.70
15359;DHT22;7779;49.596;11.070;2023-12-20T10:03:57;7.70;81.20
15359;DHT22;7779;49.596;11.070;2023-12-20T10:06:24;7.80;80.60
15359;DHT22;7779;49.596;11.070;2023-12-20T10:08:50;7.90;80.50
15359;DHT22;7779;49.596;11.070;2023-12-20T10:11:15;7.90;80.20
15359;DHT22;7779;49.596;11.070;2023-12-20T10:13:42;7.90;78.30
15359;DHT22;7779;49.596;11.070;2023-12-20T10:16:08;8.00;79.50
15359;DHT22;7779;49.596;11.070;2023-12-20T10:18:34;8.00;79.40
15359;DHT22;7779;49.596;11.070;2023-12-20T10:21:00;8.00;79.50
15359;DHT22;7779;49.596;11.070;2023-12-20T10:23:26;8.00;79.30
15359;DHT22;7779;49.596;11.070;2023-12-20T10:25:59;8.10;79.40
15359;DHT22;7779;49.596;11.070;2023-12-20T10:28:25;8.10;79.10
15359;DHT22;7779;49.596;11.070;2023-12-20T10:30:55;8.10;79.10
15359;DHT22;7779;49.596;11.070;2023-12-20T10:33:26;8.10;78.60
15359;DHT22;7779;49.596;11.070;2023-12-20T10:35:54;8.10;78.30
15359;DHT22;7779;49.596;11.070;2023-12-20T10:38:21;8.10;78.20
15359;DHT22;7779;49.596;11.070;2023-12-20T10:40:47;8.10;78.10
15359;DHT22;7779;49.596;11.070;2023-12-20T10:43:15;8.10;78.20
15359;DHT22;7779;49.596;11.070;2023-12-20T10:45:42;8.10;78.20
15359;DHT22;7779;49.596;11.070;2023-12-20T10:48:11;8.10;78.20
15359;DHT22;7779;49.596;11.070;2023-12-20T10:50:38;8.10;78.80
15359;DHT22;7779;49.596;11.070;2023-12-20T10:53:04;8.10;78.20
15359;DHT22;7779;49.596;11.070;2023-12-20T10:55:30;8.10;78.20
15359;DHT22;7779;49.596;11.070;2023-12-20T10:58:07;8.10;78.10
15359;DHT22;7779;49.596;11.070;2023-12-20T11:00:41;8.20;77.70
15359;DHT22;7779;49.596;11.070;2023-12-20T11:03:09;8.20;78.10
15359;DHT22;7779;49.596;11.070;2023-12-20T11:05:50;8.20;78.20
15359;DHT22;7779;49.596;11.070;2023-12-20T11:08:33;8.20;77.40
15359;DHT22;7779;49.596;11.070;2023-12-20T11:11:12;8.30;77.40
15359;DHT22;7779;49.596;11.070;2023-12-20T11:13:54;8.30;77.70
15359;DHT22;7779;49.596;11.070;2023-12-20T11:16:24;8.30;77.40
15359;DHT22;7779;49.596;11.070;2023-12-20T11:18:51;8.30;77.70
15359;DHT22;7779;49.596;11.070;2023-12-20T11:21:17;8.30;77.30
15359;DHT22;7779;49.596;11.070;2023-12-20T11:23:42;8.30;75.70
15359;DHT22;7779;49.596;11.070;2023-12-20T11:26:08;8.30;77.20
15359;DHT22;7779;49.596;11.070;2023-12-20T11:28:34;8.30;77.00
15359;DHT22;7779;49.596;11.070;2023-12-20T11:31:01;8.40;77.00
15359;DHT22;7779;49.596;11.070;2023-12-20T11:33:35;8.30;76.70
15359;DHT22;7779;49.596;11.070;2023-12-20T11:36:02;8.30;76.40
15359;DHT22;7779;49.596;11.070;2023-12-20T11:38:38;8.30;77.20
15359;DHT22;7779;49.596;11.070;2023-12-20T11:41:06;8.30;76.00
15359;DHT22;7779;49.596;11.070;2023-12-20T11:43:35;8.30;76.30
15359;DHT22;7779;49.596;11.070;2023-12-20T11:46:06;8.30;76.10
15359;DHT22;7779;49.596;11.070;2023-12-20T11:48:36;8.30;76.20
15359;DHT22;7779;49.596;11.070;2023-12-20T11:51:08;8.30;75.60
15359;DHT22;7779;49.596;11.070;2023-12-20T11:53:35;8.30;74.50
15359;DHT22;7779;49.596;11.070;2023-12-20T11:56:03;8.30;76.20
15359;DHT22;7779;49.596;11.070;2023-12-20T11:58:31;8.30;76.20
15359;DHT22;7779;49.596;11.070;2023-12-20T12:00:57;8.30;76.20
15359;DHT22;7779;49.596;11.070;2023-12-20T12:03:23;8.20;76.00
15359;DHT22;7779;49.596;11.070;2023-12-20T12:05:49;8.20;76.20
15359;DHT22;7779;49.596;11.070;2023-12-20T12:08:16;8.20;75.90
15359;DHT22;7779;49.596;11.070;2023-12-20T12:10:45;8.20;75.90
15359;DHT22;7779;49.596;11.070;2023-12-20T12:13:11;8.20;75.90
15359;DHT22;7779;49.596;11.070;2023-12-20T12:15:37;8.20;75.80
15359;DHT22;7779;49.596;11.070;2023-12-20T12:18:03;8.20;75.80
15359;DHT22;7779;49.596;11.070;2023-12-20T12:20:31;8.20;75.70
15359;DHT22;7779;49.596;11.070;2023-12-20T12:22:58;8.20;75.80
15359;DHT22;7779;49.596;11.070;2023-12-20T12:25:25;8.20;75.80
15359;DHT22;7779;49.596;11.070;2023-12-20T12:27:51;8.20;76.00
15359;DHT22;7779;49.596;11.070;2023-12-20T12:30:17;8.10;75.80
15359;DHT22;7779;49.596;11.070;2023-12-20T12:32:46;8.10;75.70
15359;DHT22;7779;49.596;11.070;2023-12-20T12:35:13;8.10;75.60
15359;DHT22;7779;49.596;11.070;2023-12-20T12:37:40;8.10;75.60
15359;DHT22;7779;49.596;11.070;2023-12-20T12:40:14;8.10;75.60
15359;DHT22;7779;49.596;11.070;2023-12-20T12:42:42;8.10;75.30
15359;DHT22;7779;49.596;11.070;2023-12-20T12:45:09;8.10;75.60
15359;DHT22;7779;49.596;11.070;2023-12-20T12:47:36;8.10;75.70
15359;DHT22;7779;49.596;11.070;2023-12-20T12:50:03;8.10;75.60
15359;DHT22;7779;49.596;11.070;2023-12-20T12:52:30;8.10;73.90
15359;DHT22;7779;49.596;11.070;2023-12-20T12:54:56;8.10;75.50
15359;DHT22;7779;49.596;11.070;2023-12-20T12:57:22;8.10;75.50
15359;DHT22;7779;49.596;11.070;2023-12-20T12:59:49;8.10;75.40
15359;DHT22;7779;49.596;11.070;2023-12-20T13:02:15;8.10;75.40
15359;DHT22;7779;49.596;11.070;2023-12-20T13:04:41;8.10;75.40
15359;DHT22;7779;49.596;11.070;2023-12-20T13:07:08;8.00;75.20
15359;DHT22;7779;49.596;11.070;2023-12-20T13:09:38;8.00;75.10
15359;DHT22;7779;49.596;11.070;2023-12-20T13:12:05;8.00;75.20
15359;DHT22;7779;49.596;11.070;2023-12-20T13:14:35;8.00;75.20
15359;DHT22;7779;49.596;11.070;2023-12-20T13:17:03;8.00;75.00
15359;DHT22;7779;49.596;11.070;2023-12-20T13:19:29;8.00;75.20
15359;DHT22;7779;49.596;11.070;2023-12-20T13:21:56;8.00;75.20
15359;DHT22;7779;49.596;11.070;2023-12-20T13:24:21;8.00;75.80
15359;DHT22;7779;49.596;11.070;2023-12-20T13:26:47;8.00;75.10
15359;DHT22;7779;49.596;11.070;2023-12-20T13:29:13;8.00;75.20
15359;DHT22;7779;49.596;11.070;2023-12-20T13:31:39;8.00;75.10
15359;DHT22;7779;49.596;11.070;2023-12-20T13:34:06;8.00;75.00
15359;DHT22;7779;49.596;11.070;2023-12-20T13:36:32;8.00;75.00
15359;DHT22;7779;49.596;11.070;2023-12-20T13:38:57;7.90;75.00
15359;DHT22;7779;49.596;11.070;2023-12-20T13:41:23;7.90;75.00
15359;DHT22;7779;49.596;11.070;2023-12-20T13:43:49;7.90;75.00
15359;DHT22;7779;49.596;11.070;2023-12-20T13:46:15;7.90;75.00
15359;DHT22;7779;49.596;11.070;2023-12-20T13:48:40;7.90;75.00
15359;DHT22;7779;49.596;11.070;2023-12-20T13:51:07;7.90;74.90
15359;DHT22;7779;49.596;11.070;2023-12-20T13:53:33;7.80;74.80
15359;DHT22;7779;49.596;11.070;2023-12-20T13:55:59;7.80;74.70
15359;DHT22;7779;49.596;11.070;2023-12-20T13:58:25;7.80;74.70
15359;DHT22;7779;49.596;11.070;2023-12-20T14:00:51;7.80;74.70
15359;DHT22;7779;49.596;11.070;2023-12-20T14:03:18;7.70;73.20
15359;DHT22;7779;49.596;11.070;2023-12-20T14:05:45;7.70;74.70
15359;DHT22;7779;49.596;11.070;2023-12-20T14:08:11;7.70;74.70
15359;DHT22;7779;49.596;11.070;2023-12-20T14:10:37;7.70;75.30
15359;DHT22;7779;49.596;11.070;2023-12-20T14:13:04;7.70;74.50
15359;DHT22;7779;49.596;11.070;2023-12-20T14:15:31;7.70;74.60
15359;DHT22;7779;49.596;11.070;2023-12-20T14:18:06;7.70;74.50
15359;DHT22;7779;49.596;11.070;2023-12-20T14:20:33;7.60;74.50
15359;DHT22;7779;49.596;11.070;2023-12-20T14:23:03;7.60;72.90
15359;DHT22;7779;49.596;11.070;2023-12-20T14:25:29;7.60;74.20
15359;DHT22;7779;49.596;11.070;2023-12-20T14:27:56;7.60;74.30
15359;DHT22;7779;49.596;11.070;2023-12-20T14:30:22;7.60;74.30
15359;DHT22;7779;49.596;11.070;2023-12-20T14:32:48;7.50;74.20
15359;DHT22;7779;49.596;11.070;2023-12-20T14:35:14;7.50;74.20
15359;DHT22;7779;49.596;11.070;2023-12-20T14:37:40;7.50;74.20
15359;DHT22;7779;49.596;11.070;2023-12-20T14:40:07;7.50;74.30
15359;DHT22;7779;49.596;11.070;2023-12-20T14:42:36;7.50;74.10
15359;DHT22;7779;49.596;11.070;2023-12-20T14:45:02;7.50;74.20
15359;DHT22;7779;49.596;11.070;2023-12-20T14:47:29;7.50;72.80
15359;DHT22;7779;49.596;11.070;2023-12-20T14:49:54;7.50;74.20
15359;DHT22;7779;49.596;11.070;2023-12-20T14:52:20;7.50;74.20
15359;DHT22;7779;49.596;11.070;2023-12-20T14:54:46;7.50;74.20
15359;DHT22;7779;49.596;11.070;2023-12-20T14:57:11;7.50;74.20
15359;DHT22;7779;49.596;11.070;2023-12-20T14:59:37;7.50;74.10
15359;DHT22;7779;49.596;11.070;2023-12-20T15:02:03;7.40;74.00
15359;DHT22;7779;49.596;11.070;2023-12-20T15:04:31;7.40;74.10
15359;DHT22;7779;49.596;11.070;2023-12-20T15:06:57;7.40;74.10
15359;DHT22;7779;49.596;11.070;2023-12-20T15:09:22;7.40;74.10
15359;DHT22;7779;49.596;11.070;2023-12-20T15:11:48;7.40;74.10
15359;DHT22;7779;49.596;11.070;2023-12-20T15:14:14;7.40;74.10
15359;DHT22;7779;49.596;11.070;2023-12-20T15:16:45;7.30;74.00
15359;DHT22;7779;49.596;11.070;2023-12-20T15:19:14;7.30;74.00
15359;DHT22;7779;49.596;11.070;2023-12-20T15:21:41;7.30;74.00
15359;DHT22;7779;49.596;11.070;2023-12-20T15:24:08;7.30;74.00
15359;DHT22;7779;49.596;11.070;2023-12-20T15:26:42;7.30;74.10
15359;DHT22;7779;49.596;11.070;2023-12-20T15:29:10;7.20;74.00
15359;DHT22;7779;49.596;11.070;2023-12-20T15:31:42;7.20;74.00
15359;DHT22;7779;49.596;11.070;2023-12-20T15:34:09;7.20;73.90
15359;DHT22;7779;49.596;11.070;2023-12-20T15:36:35;7.20;73.40
15359;DHT22;7779;49.596;11.070;2023-12-20T15:39:01;7.20;74.10
15359;DHT22;7779;49.596;11.070;2023-12-20T15:41:27;7.20;74.80